Time,TemperatureF,DewpointF,PressureIn,WindDirection,WindDirectionDegrees,WindSpeedMPH,WindSpeedGustMPH,Humidity,HourlyPrecipIn,Conditions,Clouds,dailyrainin,SolarRadiationWatts/m^2,SoftwareType,DateUTC
2013-05-21 00:23:00,59.0,53.0,-100.00,WNW,288,14.0,17.0,81,0.00,,,0.00,0.000000,,2013-05-21 04:23:00,
2013-05-21 00:33:00,59.0,53.0,-100.00,WNW,288,14.0,17.0,81,0.00,,,0.00,0.000000,,2013-05-21 04:33:00,
2013-05-21 00:42:00,59.0,53.0,-100.00,WNW,288,14.0,17.0,81,0.00,,,0.00,0.000000,,2013-05-21 04:42:00,
2013-05-21 00:53:00,59.0,53.0,-100.00,WNW,288,14.0,17.0,81,0.00,,,0.00,0.000000,,2013-05-21 04:53:00,
2013-05-21 01:02:00,59.0,53.0,-100.00,WNW,288,14.0,17.0,81,0.00,,,0.00,0.000000,,2013-05-21 05:02:00,
2013-05-21 01:22:00,59.0,54.0,-100.00,NW,313,10.0,18.0,83,0.00,,,0.00,0.000000,,2013-05-21 05:22:00,
2013-05-21 01:32:00,59.0,54.0,-100.00,NW,313,10.0,18.0,83,0.00,,,0.00,0.000000,,2013-05-21 05:32:00,
2013-05-21 01:42:00,59.0,54.0,-100.00,NW,313,10.0,18.0,83,0.00,,,0.00,0.000000,,2013-05-21 05:42:00,
2013-05-21 01:52:00,59.0,54.0,-100.00,NW,313,10.0,18.0,83,0.00,,,0.00,0.000000,,2013-05-21 05:52:00,
2013-05-21 02:02:00,59.0,54.0,-100.00,NW,313,10.0,18.0,83,0.00,,,0.00,0.000000,,2013-05-21 06:02:00,
2013-05-21 02:21:00,57.0,55.0,-100.00,NNW,348,6.0,14.0,94,0.00,,,0.00,0.000000,,2013-05-21 06:21:00,
2013-05-21 02:32:00,57.0,55.0,-100.00,NNW,348,6.0,14.0,94,0.00,,,0.00,0.000000,,2013-05-21 06:32:00,
2013-05-21 02:42:00,57.0,55.0,-100.00,NNW,348,6.0,14.0,94,0.00,,,0.00,0.000000,,2013-05-21 06:42:00,
2013-05-21 02:52:00,57.0,55.0,-100.00,NNW,348,6.0,14.0,94,0.00,,,0.00,0.000000,,2013-05-21 06:52:00,
2013-05-21 03:01:00,57.0,55.0,-100.00,NNW,348,6.0,14.0,94,0.00,,,0.00,0.000000,,2013-05-21 07:01:00,
2013-05-21 03:22:00,56.0,55.0,-100.00,North,353,6.0,13.0,97,0.00,,,0.00,0.000000,,2013-05-21 07:22:00,
2013-05-21 03:32:00,56.0,55.0,-100.00,North,353,6.0,13.0,97,0.00,,,0.00,0.000000,,2013-05-21 07:32:00,
2013-05-21 03:42:00,56.0,55.0,-100.00,North,353,6.0,13.0,97,0.00,,,0.00,0.000000,,2013-05-21 07:42:00,
2013-05-21 03:52:00,56.0,55.0,-100.00,North,353,6.0,13.0,97,0.00,,,0.00,0.000000,,2013-05-21 07:52:00,
2013-05-21 04:02:00,56.0,55.0,-100.00,North,353,6.0,13.0,97,0.00,,,0.00,0.000000,,2013-05-21 08:02:00,
2013-05-21 05:03:00,55.0,55.0,-100.00,NNW,345,6.0,9.0,99,-99.99,,,0.00,0.000000,,2013-05-21 09:03:00,
2013-05-21 05:33:00,55.0,55.0,-100.00,NNW,345,6.0,9.0,99,-99.99,,,0.00,0.000000,,2013-05-21 09:33:00,
2013-05-21 05:42:00,55.0,55.0,-100.00,NNW,345,6.0,9.0,99,-99.99,,,0.00,0.000000,,2013-05-21 09:42:00,
2013-05-21 05:53:00,55.0,55.0,-100.00,NNW,345,6.0,9.0,99,-99.99,,,0.00,0.000000,,2013-05-21 09:53:00,
2013-05-21 06:22:00,55.0,55.0,-100.00,North,351,4.0,7.0,99,0.00,,,0.00,0.000000,,2013-05-21 10:22:00,
2013-05-21 06:33:00,55.0,55.0,-100.00,North,351,4.0,7.0,99,0.00,,,0.00,0.000000,,2013-05-21 10:33:00,
2013-05-21 06:42:00,55.0,55.0,-100.00,North,351,4.0,7.0,99,0.00,,,0.00,0.000000,,2013-05-21 10:42:00,
2013-05-21 06:52:00,55.0,55.0,-100.00,North,351,4.0,7.0,99,0.00,,,0.00,0.000000,,2013-05-21 10:52:00,
2013-05-21 07:02:00,55.0,55.0,-100.00,North,351,4.0,7.0,99,0.00,,,0.00,0.000000,,2013-05-21 11:02:00,
2013-05-21 07:22:00,56.0,55.0,-100.00,NNW,346,3.0,7.0,98,0.00,,,0.00,23.000000,,2013-05-21 11:22:00,
2013-05-21 07:32:00,56.0,55.0,-100.00,NNW,346,3.0,7.0,98,0.00,,,0.00,23.000000,,2013-05-21 11:32:00,
2013-05-21 07:42:00,56.0,55.0,-100.00,NNW,346,3.0,7.0,98,0.00,,,0.00,23.000000,,2013-05-21 11:42:00,
2013-05-21 07:52:00,56.0,55.0,-100.00,NNW,346,3.0,7.0,98,0.00,,,0.00,23.000000,,2013-05-21 11:52:00,
2013-05-21 08:01:00,56.0,55.0,-100.00,NNW,346,3.0,7.0,98,0.00,,,0.00,23.000000,,2013-05-21 12:01:00,
2013-05-21 08:32:00,62.0,58.0,-100.00,ENE,70,2.0,7.0,88,0.00,,,0.00,183.000000,,2013-05-21 12:32:00,
2013-05-21 08:42:00,62.0,58.0,-100.00,ENE,70,2.0,7.0,88,0.00,,,0.00,183.000000,,2013-05-21 12:42:00,
2013-05-21 08:52:00,62.0,58.0,-100.00,ENE,70,2.0,7.0,88,0.00,,,0.00,183.000000,,2013-05-21 12:52:00,
2013-05-21 09:01:00,62.0,58.0,-100.00,ENE,70,2.0,7.0,88,0.00,,,0.00,183.000000,,2013-05-21 13:01:00,
2013-05-21 09:22:00,62.0,55.0,-100.00,NNE,27,7.0,10.0,79,0.00,,,-99.99,372.000000,,2013-05-21 13:22:00,
2013-05-21 09:32:00,62.0,55.0,-100.00,NNE,27,7.0,10.0,79,0.00,,,-99.99,372.000000,,2013-05-21 13:32:00,
2013-05-21 09:42:00,62.0,55.0,-100.00,NNE,27,7.0,10.0,79,0.00,,,-99.99,372.000000,,2013-05-21 13:42:00,
2013-05-21 09:52:00,62.0,55.0,-100.00,NNE,27,7.0,10.0,79,0.00,,,-99.99,372.000000,,2013-05-21 13:52:00,
2013-05-21 10:02:00,62.0,55.0,-100.00,NNE,27,7.0,10.0,79,0.00,,,-99.99,372.000000,,2013-05-21 14:02:00,
2013-05-21 10:21:00,63.0,55.0,-100.00,NE,48,8.0,14.0,76,0.00,,,0.00,574.000000,,2013-05-21 14:21:00,
2013-05-21 10:32:00,63.0,55.0,-100.00,NE,48,8.0,14.0,76,0.00,,,0.00,574.000000,,2013-05-21 14:32:00,
2013-05-21 10:42:00,63.0,55.0,-100.00,NE,48,8.0,14.0,76,0.00,,,0.00,574.000000,,2013-05-21 14:42:00,
2013-05-21 10:52:00,63.0,55.0,-100.00,NE,48,8.0,14.0,76,0.00,,,0.00,574.000000,,2013-05-21 14:52:00,
2013-05-21 11:01:00,63.0,55.0,-100.00,NE,48,8.0,14.0,76,0.00,,,0.00,574.000000,,2013-05-21 15:01:00,
2013-05-21 12:32:00,70.0,58.0,-100.00,NE,44,7.0,14.0,66,-99.99,,,0.00,821.000000,,2013-05-21 16:32:00,
2013-05-21 12:42:00,70.0,58.0,-100.00,NE,44,7.0,14.0,66,-99.99,,,0.00,821.000000,,2013-05-21 16:42:00,
2013-05-21 12:53:00,70.0,58.0,-100.00,NE,44,7.0,14.0,66,-99.99,,,0.00,821.000000,,2013-05-21 16:53:00,
2013-05-21 13:02:00,70.0,58.0,-100.00,NE,44,7.0,14.0,66,-99.99,,,0.00,821.000000,,2013-05-21 17:02:00,
2013-05-21 13:33:00,70.0,57.0,-100.00,ENE,65,7.0,14.0,64,0.00,,,0.00,933.000000,,2013-05-21 17:33:00,
2013-05-21 13:44:00,70.0,57.0,-100.00,ENE,65,7.0,14.0,64,0.00,,,0.00,933.000000,,2013-05-21 17:44:00,
2013-05-21 13:52:00,70.0,57.0,-100.00,ENE,65,7.0,14.0,64,0.00,,,0.00,933.000000,,2013-05-21 17:52:00,
2013-05-21 14:02:00,70.0,57.0,-100.00,ENE,65,7.0,14.0,64,0.00,,,0.00,933.000000,,2013-05-21 18:02:00,
2013-05-21 14:22:00,68.0,54.0,-100.00,South,179,4.0,13.0,61,0.00,,,0.00,837.000000,,2013-05-21 18:22:00,
2013-05-21 14:32:00,68.0,54.0,-100.00,South,179,4.0,13.0,61,0.00,,,0.00,837.000000,,2013-05-21 18:32:00,
2013-05-21 14:42:00,68.0,54.0,-100.00,South,179,4.0,13.0,61,0.00,,,0.00,837.000000,,2013-05-21 18:42:00,
2013-05-21 14:52:00,68.0,54.0,-100.00,South,179,4.0,13.0,61,0.00,,,0.00,837.000000,,2013-05-21 18:52:00,
2013-05-21 15:01:00,68.0,54.0,-100.00,South,179,4.0,13.0,61,0.00,,,0.00,837.000000,,2013-05-21 19:01:00,
2013-05-21 15:03:00,71.0,58.0,-100.00,West,275,8.0,16.0,63,0.00,,,0.00,453.000000,,2013-05-21 19:03:00,
2013-05-21 15:22:00,71.0,58.0,-100.00,West,275,8.0,16.0,63,0.00,,,0.00,453.000000,,2013-05-21 19:22:00,
2013-05-21 15:32:00,71.0,58.0,-100.00,West,275,8.0,16.0,63,0.00,,,0.00,453.000000,,2013-05-21 19:32:00,
2013-05-21 15:42:00,71.0,58.0,-100.00,West,275,8.0,16.0,63,0.00,,,0.00,453.000000,,2013-05-21 19:42:00,
2013-05-21 15:52:00,71.0,58.0,-100.00,West,275,8.0,16.0,63,0.00,,,0.00,453.000000,,2013-05-21 19:52:00,
2013-05-21 16:22:00,70.0,49.0,-100.00,West,280,7.0,14.0,47,0.00,,,0.00,663.000000,,2013-05-21 20:22:00,
2013-05-21 16:33:00,70.0,49.0,-100.00,West,280,7.0,14.0,47,0.00,,,0.00,663.000000,,2013-05-21 20:33:00,
2013-05-21 16:42:00,70.0,49.0,-100.00,West,280,7.0,14.0,47,0.00,,,0.00,663.000000,,2013-05-21 20:42:00,
2013-05-21 16:52:00,70.0,49.0,-100.00,West,280,7.0,14.0,47,0.00,,,0.00,663.000000,,2013-05-21 20:52:00,
2013-05-21 17:02:00,70.0,49.0,-100.00,West,280,7.0,14.0,47,0.00,,,0.00,663.000000,,2013-05-21 21:02:00,
2013-05-21 17:22:00,65.0,50.0,-100.00,WSW,246,12.0,19.0,58,0.00,,,0.00,526.000000,,2013-05-21 21:22:00,
2013-05-21 17:33:00,65.0,50.0,-100.00,WSW,246,12.0,19.0,58,0.00,,,0.00,526.000000,,2013-05-21 21:33:00,
2013-05-21 17:43:00,65.0,50.0,-100.00,WSW,246,12.0,19.0,58,0.00,,,0.00,526.000000,,2013-05-21 21:43:00,
2013-05-21 17:54:00,65.0,50.0,-100.00,WSW,246,12.0,19.0,58,0.00,,,0.00,526.000000,,2013-05-21 21:54:00,
2013-05-21 18:02:00,65.0,50.0,-100.00,WSW,246,12.0,19.0,58,0.00,,,0.00,526.000000,,2013-05-21 22:02:00,
2013-05-21 18:23:00,64.0,52.0,-100.00,WSW,241,12.0,20.0,64,0.00,,,0.00,267.000000,,2013-05-21 22:23:00,
2013-05-21 18:33:00,64.0,52.0,-100.00,WSW,241,12.0,20.0,64,0.00,,,0.00,267.000000,,2013-05-21 22:33:00,
2013-05-21 18:42:00,64.0,52.0,-100.00,WSW,241,12.0,20.0,64,0.00,,,0.00,267.000000,,2013-05-21 22:42:00,
2013-05-21 18:53:00,64.0,52.0,-100.00,WSW,241,12.0,20.0,64,0.00,,,0.00,267.000000,,2013-05-21 22:53:00,
2013-05-21 19:02:00,64.0,52.0,-100.00,WSW,241,12.0,20.0,64,0.00,,,0.00,267.000000,,2013-05-21 23:02:00,
2013-05-21 19:22:00,62.0,50.0,-100.00,WSW,240,14.0,18.0,65,0.00,,,0.00,135.000000,,2013-05-21 23:22:00,
2013-05-21 19:32:00,62.0,50.0,-100.00,WSW,240,14.0,18.0,65,0.00,,,0.00,135.000000,,2013-05-21 23:32:00,
2013-05-21 19:42:00,62.0,50.0,-100.00,WSW,240,14.0,18.0,65,0.00,,,0.00,135.000000,,2013-05-21 23:42:00,
2013-05-21 19:52:00,62.0,50.0,-100.00,WSW,240,14.0,18.0,65,0.00,,,0.00,135.000000,,2013-05-21 23:52:00,
2013-05-21 20:01:00,62.0,50.0,-100.00,WSW,240,14.0,18.0,65,0.00,,,0.00,135.000000,,2013-05-22 00:01:00,
2013-05-21 20:22:00,60.0,49.0,-100.00,NE,56,4.0,19.0,67,0.00,,,0.00,20.000000,,2013-05-22 00:22:00,
2013-05-21 20:32:00,60.0,49.0,-100.00,NE,56,4.0,19.0,67,0.00,,,0.00,20.000000,,2013-05-22 00:32:00,
2013-05-21 20:42:00,60.0,49.0,-100.00,NE,56,4.0,19.0,67,0.00,,,0.00,20.000000,,2013-05-22 00:42:00,
2013-05-21 20:52:00,60.0,49.0,-100.00,NE,56,4.0,19.0,67,0.00,,,0.00,20.000000,,2013-05-22 00:52:00,
2013-05-21 21:01:00,60.0,49.0,-100.00,NE,56,4.0,19.0,67,0.00,,,0.00,20.000000,,2013-05-22 01:01:00,
2013-05-21 21:22:00,58.0,54.0,-100.00,NW,318,4.0,11.0,87,0.00,,,0.00,1.000000,,2013-05-22 01:22:00,
2013-05-21 21:32:00,58.0,54.0,-100.00,NW,318,4.0,11.0,87,0.00,,,0.00,1.000000,,2013-05-22 01:32:00,
2013-05-21 21:42:00,58.0,54.0,-100.00,NW,318,4.0,11.0,87,0.00,,,0.00,1.000000,,2013-05-22 01:42:00,
2013-05-21 21:52:00,58.0,54.0,-100.00,NW,318,4.0,11.0,87,0.00,,,0.00,1.000000,,2013-05-22 01:52:00,
2013-05-21 22:02:00,58.0,54.0,-100.00,NW,318,4.0,11.0,87,0.00,,,0.00,1.000000,,2013-05-22 02:02:00,
2013-05-21 22:22:00,59.0,45.0,-100.00,NW,325,7.0,11.0,59,0.00,,,0.00,0.000000,,2013-05-22 02:22:00,
2013-05-21 22:32:00,59.0,45.0,-100.00,NW,325,7.0,11.0,59,0.00,,,0.00,0.000000,,2013-05-22 02:32:00,
2013-05-21 22:42:00,59.0,45.0,-100.00,NW,325,7.0,11.0,59,0.00,,,0.00,0.000000,,2013-05-22 02:42:00,
2013-05-21 22:52:00,59.0,45.0,-100.00,NW,325,7.0,11.0,59,0.00,,,0.00,0.000000,,2013-05-22 02:52:00,
2013-05-21 23:01:00,59.0,45.0,-100.00,NW,325,7.0,11.0,59,0.00,,,0.00,0.000000,,2013-05-22 03:01:00,
2013-05-21 23:03:00,60.0,53.0,-100.00,WSW,249,13.0,21.0,78,0.00,,,0.00,0.000000,,2013-05-22 03:03:00,
2013-05-21 23:22:00,60.0,53.0,-100.00,WSW,249,13.0,21.0,78,0.00,,,0.00,0.000000,,2013-05-22 03:22:00,
2013-05-21 23:33:00,60.0,53.0,-100.00,WSW,249,13.0,21.0,78,0.00,,,0.00,0.000000,,2013-05-22 03:33:00,
2013-05-21 23:43:00,60.0,53.0,-100.00,WSW,249,13.0,21.0,78,0.00,,,0.00,0.000000,,2013-05-22 03:43:00,
2013-05-21 23:53:00,60.0,53.0,-100.00,WSW,249,13.0,21.0,78,0.00,,,0.00,0.000000,,2013-05-22 03:53:00,